Ixtapa, GRO, Mexico
Current Conditions -  °F | °C
As of 8:45 PM on Saturday 22 Nov 2014 (Local Time) from MMZH Reporting Station
Clear Clear  
Wind Chill: 79°   Ceiling: Unl
Heat Index: 82°   Visibility: 8mi
Dew Point: 73°   Wind: 0mph
Humidity: 83%   Direction: NA
Pressure: 29.87"   Gusts: NA
Location:  17.66°N, 101.59°W
Report Text: MMZH 230245Z 00000KT 8SM SKC 26/23 A2987 RMK SLP/// 5//// 9//
Loading
Personal Weather Stations






























Interactive Weather Map New forecast layout! Learn more

10-Day Weather Forecast

Advertisements
Track Severe Weather on mobile